sensor_id;sensor_type;location;lat;lon;timestamp;P1;durP1;ratioP1;P2;durP2;ratioP2
64498;SDS011;51087;55.718;21.122;2022-07-23T00:01:53;15.82;;;11.02;;
64498;SDS011;51087;55.718;21.122;2022-07-23T00:04:19;19.30;;;10.98;;
64498;SDS011;51087;55.718;21.122;2022-07-23T00:06:44;19.33;;;9.55;;
64498;SDS011;51087;55.718;21.122;2022-07-23T00:09:09;18.80;;;9.90;;
64498;SDS011;51087;55.718;21.122;2022-07-23T00:11:35;19.00;;;9.23;;
64498;SDS011;51087;55.718;21.122;2022-07-23T00:14:00;15.52;;;8.73;;
64498;SDS011;51087;55.718;21.122;2022-07-23T00:16:26;16.70;;;8.85;;
64498;SDS011;51087;55.718;21.122;2022-07-23T00:18:51;16.80;;;7.80;;
64498;SDS011;51087;55.718;21.122;2022-07-23T00:21:16;13.77;;;6.75;;
64498;SDS011;51087;55.718;21.122;2022-07-23T00:23:42;11.55;;;6.68;;
64498;SDS011;51087;55.718;21.122;2022-07-23T00:26:07;10.32;;;6.45;;
64498;SDS011;51087;55.718;21.122;2022-07-23T00:28:33;13.13;;;6.07;;
64498;SDS011;51087;55.718;21.122;2022-07-23T00:30:58;11.27;;;5.38;;
64498;SDS011;51087;55.718;21.122;2022-07-23T00:33:24;8.90;;;5.10;;
64498;SDS011;51087;55.718;21.122;2022-07-23T00:35:49;11.73;;;4.63;;
64498;SDS011;51087;55.718;21.122;2022-07-23T00:38:15;8.60;;;4.38;;
64498;SDS011;51087;55.718;21.122;2022-07-23T00:40:40;8.88;;;4.03;;
64498;SDS011;51087;55.718;21.122;2022-07-23T00:43:06;8.68;;;3.92;;
64498;SDS011;51087;55.718;21.122;2022-07-23T00:45:32;8.00;;;3.92;;
64498;SDS011;51087;55.718;21.122;2022-07-23T00:47:57;7.10;;;3.47;;
64498;SDS011;51087;55.718;21.122;2022-07-23T00:50:23;8.75;;;2.92;;
64498;SDS011;51087;55.718;21.122;2022-07-23T00:52:49;8.10;;;3.33;;
64498;SDS011;51087;55.718;21.122;2022-07-23T00:55:15;9.32;;;2.80;;
64498;SDS011;51087;55.718;21.122;2022-07-23T00:57:41;11.18;;;2.50;;
64498;SDS011;51087;55.718;21.122;2022-07-23T01:00:08;6.45;;;2.13;;
64498;SDS011;51087;55.718;21.122;2022-07-23T01:02:36;5.85;;;2.13;;
64498;SDS011;51087;55.718;21.122;2022-07-23T01:05:02;7.70;;;2.20;;
64498;SDS011;51087;55.718;21.122;2022-07-23T01:07:28;8.25;;;2.45;;
64498;SDS011;51087;55.718;21.122;2022-07-23T01:09:54;10.98;;;2.10;;
64498;SDS011;51087;55.718;21.122;2022-07-23T01:12:20;7.55;;;2.42;;
64498;SDS011;51087;55.718;21.122;2022-07-23T01:14:53;6.55;;;2.30;;
64498;SDS011;51087;55.718;21.122;2022-07-23T01:17:22;5.35;;;2.60;;
64498;SDS011;51087;55.718;21.122;2022-07-23T01:19:47;8.02;;;2.30;;
64498;SDS011;51087;55.718;21.122;2022-07-23T01:22:13;9.20;;;2.50;;
64498;SDS011;51087;55.718;21.122;2022-07-23T01:24:42;9.73;;;2.88;;
64498;SDS011;51087;55.718;21.122;2022-07-23T01:27:08;9.60;;;2.58;;
64498;SDS011;51087;55.718;21.122;2022-07-23T01:29:33;10.05;;;2.72;;
64498;SDS011;51087;55.718;21.122;2022-07-23T01:31:59;9.07;;;3.03;;
64498;SDS011;51087;55.718;21.122;2022-07-23T01:34:24;7.68;;;3.00;;
64498;SDS011;51087;55.718;21.122;2022-07-23T01:36:50;8.68;;;2.88;;
64498;SDS011;51087;55.718;21.122;2022-07-23T01:39:15;9.48;;;2.95;;
64498;SDS011;51087;55.718;21.122;2022-07-23T01:41:41;6.72;;;2.47;;
64498;SDS011;51087;55.718;21.122;2022-07-23T01:44:06;8.48;;;2.80;;
64498;SDS011;51087;55.718;21.122;2022-07-23T01:46:32;9.50;;;2.70;;
64498;SDS011;51087;55.718;21.122;2022-07-23T01:48:57;15.65;;;3.15;;
64498;SDS011;51087;55.718;21.122;2022-07-23T01:51:23;11.05;;;3.60;;
64498;SDS011;51087;55.718;21.122;2022-07-23T01:53:48;10.80;;;3.15;;
64498;SDS011;51087;55.718;21.122;2022-07-23T01:56:13;8.93;;;2.75;;
64498;SDS011;51087;55.718;21.122;2022-07-23T01:58:40;13.18;;;2.72;;
64498;SDS011;51087;55.718;21.122;2022-07-23T02:01:06;13.20;;;2.90;;
64498;SDS011;51087;55.718;21.122;2022-07-23T02:03:31;10.57;;;2.67;;
64498;SDS011;51087;55.718;21.122;2022-07-23T02:05:56;15.30;;;3.40;;
64498;SDS011;51087;55.718;21.122;2022-07-23T02:08:22;15.60;;;3.30;;
64498;SDS011;51087;55.718;21.122;2022-07-23T02:10:47;9.18;;;3.22;;
64498;SDS011;51087;55.718;21.122;2022-07-23T02:13:13;10.93;;;2.45;;
64498;SDS011;51087;55.718;21.122;2022-07-23T02:15:39;10.95;;;2.90;;
64498;SDS011;51087;55.718;21.122;2022-07-23T02:18:05;8.48;;;2.08;;
64498;SDS011;51087;55.718;21.122;2022-07-23T02:20:30;12.68;;;2.70;;
64498;SDS011;51087;55.718;21.122;2022-07-23T02:22:56;8.55;;;2.72;;
64498;SDS011;51087;55.718;21.122;2022-07-23T02:25:22;19.70;;;2.97;;
64498;SDS011;51087;55.718;21.122;2022-07-23T02:27:47;13.60;;;4.22;;
64498;SDS011;51087;55.718;21.122;2022-07-23T02:30:12;11.32;;;3.00;;
64498;SDS011;51087;55.718;21.122;2022-07-23T02:32:38;14.40;;;2.60;;
64498;SDS011;51087;55.718;21.122;2022-07-23T02:35:04;11.05;;;2.50;;
64498;SDS011;51087;55.718;21.122;2022-07-23T02:37:30;14.07;;;2.47;;
64498;SDS011;51087;55.718;21.122;2022-07-23T02:39:56;8.75;;;2.67;;
64498;SDS011;51087;55.718;21.122;2022-07-23T02:42:22;13.35;;;2.53;;
64498;SDS011;51087;55.718;21.122;2022-07-23T02:44:48;9.00;;;2.28;;
64498;SDS011;51087;55.718;21.122;2022-07-23T02:47:14;18.65;;;3.15;;
64498;SDS011;51087;55.718;21.122;2022-07-23T02:49:40;13.10;;;2.42;;
64498;SDS011;51087;55.718;21.122;2022-07-23T02:52:05;11.20;;;2.42;;
64498;SDS011;51087;55.718;21.122;2022-07-23T02:54:31;9.88;;;2.33;;
64498;SDS011;51087;55.718;21.122;2022-07-23T02:56:56;14.32;;;2.67;;
64498;SDS011;51087;55.718;21.122;2022-07-23T02:59:21;10.30;;;2.70;;
64498;SDS011;51087;55.718;21.122;2022-07-23T03:01:47;12.27;;;2.88;;
64498;SDS011;51087;55.718;21.122;2022-07-23T03:04:13;10.57;;;2.83;;
64498;SDS011;51087;55.718;21.122;2022-07-23T03:06:38;25.35;;;3.25;;
64498;SDS011;51087;55.718;21.122;2022-07-23T03:09:04;6.47;;;2.45;;
64498;SDS011;51087;55.718;21.122;2022-07-23T03:11:30;20.00;;;2.80;;
64498;SDS011;51087;55.718;21.122;2022-07-23T03:13:56;10.55;;;2.53;;
64498;SDS011;51087;55.718;21.122;2022-07-23T03:16:21;13.52;;;2.90;;
64498;SDS011;51087;55.718;21.122;2022-07-23T03:18:47;9.93;;;2.42;;
64498;SDS011;51087;55.718;21.122;2022-07-23T03:21:12;7.55;;;2.38;;
64498;SDS011;51087;55.718;21.122;2022-07-23T03:23:38;13.82;;;2.47;;
64498;SDS011;51087;55.718;21.122;2022-07-23T03:26:04;13.30;;;2.55;;
64498;SDS011;51087;55.718;21.122;2022-07-23T03:28:29;13.48;;;2.55;;
64498;SDS011;51087;55.718;21.122;2022-07-23T03:30:56;12.52;;;2.75;;
64498;SDS011;51087;55.718;21.122;2022-07-23T03:33:21;12.80;;;2.60;;
64498;SDS011;51087;55.718;21.122;2022-07-23T03:35:47;10.77;;;2.30;;
64498;SDS011;51087;55.718;21.122;2022-07-23T03:38:13;16.10;;;2.70;;
64498;SDS011;51087;55.718;21.122;2022-07-23T03:40:39;9.18;;;2.13;;
64498;SDS011;51087;55.718;21.122;2022-07-23T03:43:05;10.95;;;2.78;;
64498;SDS011;51087;55.718;21.122;2022-07-23T03:45:31;14.13;;;2.70;;
64498;SDS011;51087;55.718;21.122;2022-07-23T03:47:56;12.50;;;2.50;;
64498;SDS011;51087;55.718;21.122;2022-07-23T03:50:22;10.43;;;2.53;;
64498;SDS011;51087;55.718;21.122;2022-07-23T03:52:48;11.02;;;2.50;;
64498;SDS011;51087;55.718;21.122;2022-07-23T03:55:14;11.45;;;2.50;;
64498;SDS011;51087;55.718;21.122;2022-07-23T03:57:39;9.95;;;2.08;;
64498;SDS011;51087;55.718;21.122;2022-07-23T04:00:06;11.60;;;2.30;;
64498;SDS011;51087;55.718;21.122;2022-07-23T04:02:34;11.88;;;2.40;;
64498;SDS011;51087;55.718;21.122;2022-07-23T04:04:59;9.25;;;2.00;;
64498;SDS011;51087;55.718;21.122;2022-07-23T04:07:25;13.25;;;2.65;;
64498;SDS011;51087;55.718;21.122;2022-07-23T04:09:51;11.13;;;2.28;;
64498;SDS011;51087;55.718;21.122;2022-07-23T04:12:17;9.15;;;2.55;;
64498;SDS011;51087;55.718;21.122;2022-07-23T04:14:43;7.85;;;2.55;;
64498;SDS011;51087;55.718;21.122;2022-07-23T04:17:09;10.27;;;2.25;;
64498;SDS011;51087;55.718;21.122;2022-07-23T04:19:34;12.00;;;2.80;;
64498;SDS011;51087;55.718;21.122;2022-07-23T04:22:04;9.18;;;2.58;;
64498;SDS011;51087;55.718;21.122;2022-07-23T04:24:30;15.63;;;2.58;;
64498;SDS011;51087;55.718;21.122;2022-07-23T04:26:56;12.48;;;2.60;;
64498;SDS011;51087;55.718;21.122;2022-07-23T04:29:21;9.95;;;2.40;;
64498;SDS011;51087;55.718;21.122;2022-07-23T04:31:47;9.05;;;2.53;;
64498;SDS011;51087;55.718;21.122;2022-07-23T04:34:12;10.98;;;2.72;;
64498;SDS011;51087;55.718;21.122;2022-07-23T04:36:37;12.23;;;2.80;;
64498;SDS011;51087;55.718;21.122;2022-07-23T04:39:03;10.85;;;2.72;;
64498;SDS011;51087;55.718;21.122;2022-07-23T04:41:28;12.90;;;2.63;;
64498;SDS011;51087;55.718;21.122;2022-07-23T04:43:54;7.32;;;2.40;;
64498;SDS011;51087;55.718;21.122;2022-07-23T04:46:19;9.90;;;2.25;;
64498;SDS011;51087;55.718;21.122;2022-07-23T04:48:45;12.40;;;3.40;;
64498;SDS011;51087;55.718;21.122;2022-07-23T04:51:10;9.55;;;2.95;;
64498;SDS011;51087;55.718;21.122;2022-07-23T04:53:36;10.82;;;2.60;;
64498;SDS011;51087;55.718;21.122;2022-07-23T04:56:03;11.32;;;3.17;;
64498;SDS011;51087;55.718;21.122;2022-07-23T04:58:29;10.07;;;2.50;;
64498;SDS011;51087;55.718;21.122;2022-07-23T05:00:54;14.43;;;2.30;;
64498;SDS011;51087;55.718;21.122;2022-07-23T05:03:22;7.80;;;2.33;;
64498;SDS011;51087;55.718;21.122;2022-07-23T05:05:48;14.88;;;2.88;;
64498;SDS011;51087;55.718;21.122;2022-07-23T05:08:13;10.10;;;2.33;;
64498;SDS011;51087;55.718;21.122;2022-07-23T05:10:39;8.15;;;2.22;;
64498;SDS011;51087;55.718;21.122;2022-07-23T05:13:04;10.63;;;2.22;;
64498;SDS011;51087;55.718;21.122;2022-07-23T05:15:30;10.02;;;2.90;;
64498;SDS011;51087;55.718;21.122;2022-07-23T05:17:55;10.50;;;2.30;;
64498;SDS011;51087;55.718;21.122;2022-07-23T05:20:21;9.40;;;2.17;;
64498;SDS011;51087;55.718;21.122;2022-07-23T05:22:46;8.85;;;2.55;;
64498;SDS011;51087;55.718;21.122;2022-07-23T05:25:12;12.20;;;2.35;;
64498;SDS011;51087;55.718;21.122;2022-07-23T05:27:37;13.07;;;2.38;;
64498;SDS011;51087;55.718;21.122;2022-07-23T05:30:03;15.73;;;3.03;;
64498;SDS011;51087;55.718;21.122;2022-07-23T05:32:30;9.65;;;2.42;;
64498;SDS011;51087;55.718;21.122;2022-07-23T05:34:56;7.88;;;2.47;;
64498;SDS011;51087;55.718;21.122;2022-07-23T05:37:22;10.15;;;2.33;;
64498;SDS011;51087;55.718;21.122;2022-07-23T05:39:47;14.05;;;2.70;;
64498;SDS011;51087;55.718;21.122;2022-07-23T05:42:13;11.32;;;2.50;;
64498;SDS011;51087;55.718;21.122;2022-07-23T05:44:38;10.75;;;2.30;;
64498;SDS011;51087;55.718;21.122;2022-07-23T05:47:03;10.68;;;2.38;;
64498;SDS011;51087;55.718;21.122;2022-07-23T05:49:29;11.48;;;2.72;;
64498;SDS011;51087;55.718;21.122;2022-07-23T05:51:54;9.23;;;2.28;;
64498;SDS011;51087;55.718;21.122;2022-07-23T05:54:20;9.95;;;2.42;;
64498;SDS011;51087;55.718;21.122;2022-07-23T05:56:45;9.52;;;2.13;;
64498;SDS011;51087;55.718;21.122;2022-07-23T05:59:11;8.40;;;2.20;;
64498;SDS011;51087;55.718;21.122;2022-07-23T06:01:38;11.68;;;2.47;;
64498;SDS011;51087;55.718;21.122;2022-07-23T06:04:03;11.18;;;2.33;;
64498;SDS011;51087;55.718;21.122;2022-07-23T06:06:29;10.75;;;2.70;;
64498;SDS011;51087;55.718;21.122;2022-07-23T06:08:54;6.65;;;2.10;;
64498;SDS011;51087;55.718;21.122;2022-07-23T06:11:20;6.60;;;2.08;;
64498;SDS011;51087;55.718;21.122;2022-07-23T06:13:45;7.30;;;2.10;;
64498;SDS011;51087;55.718;21.122;2022-07-23T06:16:10;13.63;;;2.35;;
64498;SDS011;51087;55.718;21.122;2022-07-23T06:18:36;7.28;;;2.15;;
64498;SDS011;51087;55.718;21.122;2022-07-23T06:21:01;12.50;;;2.42;;
64498;SDS011;51087;55.718;21.122;2022-07-23T06:23:27;8.93;;;2.13;;
64498;SDS011;51087;55.718;21.122;2022-07-23T06:25:52;10.70;;;2.90;;
64498;SDS011;51087;55.718;21.122;2022-07-23T06:28:18;5.32;;;1.90;;
64498;SDS011;51087;55.718;21.122;2022-07-23T06:30:43;9.60;;;2.55;;
64498;SDS011;51087;55.718;21.122;2022-07-23T06:33:08;8.77;;;2.17;;
64498;SDS011;51087;55.718;21.122;2022-07-23T06:35:34;7.13;;;1.90;;
64498;SDS011;51087;55.718;21.122;2022-07-23T06:38:00;10.93;;;2.22;;
64498;SDS011;51087;55.718;21.122;2022-07-23T06:40:25;15.25;;;3.08;;
64498;SDS011;51087;55.718;21.122;2022-07-23T06:42:51;8.48;;;2.33;;
64498;SDS011;51087;55.718;21.122;2022-07-23T06:45:16;9.30;;;2.35;;
64498;SDS011;51087;55.718;21.122;2022-07-23T06:47:42;8.70;;;2.20;;
64498;SDS011;51087;55.718;21.122;2022-07-23T06:50:08;6.53;;;2.20;;
64498;SDS011;51087;55.718;21.122;2022-07-23T06:52:34;11.48;;;2.50;;
64498;SDS011;51087;55.718;21.122;2022-07-23T06:54:59;7.18;;;2.35;;
64498;SDS011;51087;55.718;21.122;2022-07-23T06:57:25;6.07;;;1.70;;
64498;SDS011;51087;55.718;21.122;2022-07-23T06:59:51;11.23;;;2.20;;
64498;SDS011;51087;55.718;21.122;2022-07-23T07:02:16;8.88;;;2.20;;
64498;SDS011;51087;55.718;21.122;2022-07-23T07:04:42;9.73;;;2.28;;
64498;SDS011;51087;55.718;21.122;2022-07-23T07:07:07;18.67;;;2.60;;
64498;SDS011;51087;55.718;21.122;2022-07-23T07:09:33;7.22;;;1.63;;
64498;SDS011;51087;55.718;21.122;2022-07-23T07:11:58;9.95;;;2.40;;
64498;SDS011;51087;55.718;21.122;2022-07-23T07:14:24;9.98;;;2.42;;
64498;SDS011;51087;55.718;21.122;2022-07-23T07:16:49;9.93;;;1.77;;
64498;SDS011;51087;55.718;21.122;2022-07-23T07:19:14;9.32;;;2.30;;
64498;SDS011;51087;55.718;21.122;2022-07-23T07:21:40;7.22;;;2.13;;
64498;SDS011;51087;55.718;21.122;2022-07-23T07:24:05;10.15;;;1.92;;
64498;SDS011;51087;55.718;21.122;2022-07-23T07:26:31;12.73;;;2.42;;
64498;SDS011;51087;55.718;21.122;2022-07-23T07:28:57;8.65;;;2.20;;
64498;SDS011;51087;55.718;21.122;2022-07-23T07:31:22;10.93;;;2.30;;
64498;SDS011;51087;55.718;21.122;2022-07-23T07:33:48;10.73;;;2.33;;
64498;SDS011;51087;55.718;21.122;2022-07-23T07:36:13;7.55;;;1.77;;
64498;SDS011;51087;55.718;21.122;2022-07-23T07:38:39;11.10;;;2.40;;
64498;SDS011;51087;55.718;21.122;2022-07-23T07:41:04;10.43;;;2.03;;
64498;SDS011;51087;55.718;21.122;2022-07-23T07:43:29;12.45;;;2.08;;
64498;SDS011;51087;55.718;21.122;2022-07-23T07:45:55;8.88;;;2.30;;
64498;SDS011;51087;55.718;21.122;2022-07-23T07:48:20;13.52;;;2.70;;
64498;SDS011;51087;55.718;21.122;2022-07-23T07:50:46;11.45;;;1.88;;
64498;SDS011;51087;55.718;21.122;2022-07-23T07:53:11;11.65;;;2.47;;
64498;SDS011;51087;55.718;21.122;2022-07-23T07:55:37;13.75;;;2.03;;
64498;SDS011;51087;55.718;21.122;2022-07-23T07:58:02;6.38;;;1.70;;
64498;SDS011;51087;55.718;21.122;2022-07-23T08:00:28;6.68;;;1.90;;
64498;SDS011;51087;55.718;21.122;2022-07-23T08:02:54;5.68;;;1.70;;
64498;SDS011;51087;55.718;21.122;2022-07-23T08:05:20;7.65;;;1.88;;
64498;SDS011;51087;55.718;21.122;2022-07-23T08:07:51;8.98;;;2.00;;
64498;SDS011;51087;55.718;21.122;2022-07-23T08:10:17;9.15;;;2.05;;
64498;SDS011;51087;55.718;21.122;2022-07-23T08:12:47;8.48;;;2.38;;
64498;SDS011;51087;55.718;21.122;2022-07-23T08:15:15;14.77;;;2.20;;
64498;SDS011;51087;55.718;21.122;2022-07-23T08:17:42;7.53;;;1.92;;
64498;SDS011;51087;55.718;21.122;2022-07-23T08:20:09;5.15;;;1.98;;
64498;SDS011;51087;55.718;21.122;2022-07-23T08:25:15;7.97;;;2.00;;
64498;SDS011;51087;55.718;21.122;2022-07-23T08:27:41;7.63;;;2.20;;
64498;SDS011;51087;55.718;21.122;2022-07-23T08:30:07;7.47;;;2.05;;
64498;SDS011;51087;55.718;21.122;2022-07-23T08:32:33;5.47;;;1.70;;
64498;SDS011;51087;55.718;21.122;2022-07-23T08:35:12;6.85;;;1.80;;
64498;SDS011;51087;55.718;21.122;2022-07-23T08:37:37;7.28;;;2.15;;
64498;SDS011;51087;55.718;21.122;2022-07-23T08:40:02;7.28;;;2.40;;
64498;SDS011;51087;55.718;21.122;2022-07-23T08:42:28;6.63;;;2.10;;
64498;SDS011;51087;55.718;21.122;2022-07-23T08:44:54;12.18;;;2.30;;
64498;SDS011;51087;55.718;21.122;2022-07-23T08:47:19;8.18;;;2.00;;
64498;SDS011;51087;55.718;21.122;2022-07-23T08:49:45;6.70;;;2.00;;
64498;SDS011;51087;55.718;21.122;2022-07-23T08:52:11;5.10;;;1.80;;
64498;SDS011;51087;55.718;21.122;2022-07-23T08:54:37;11.35;;;2.05;;
64498;SDS011;51087;55.718;21.122;2022-07-23T08:57:02;9.55;;;2.15;;
64498;SDS011;51087;55.718;21.122;2022-07-23T08:59:28;11.50;;;1.80;;
64498;SDS011;51087;55.718;21.122;2022-07-23T09:01:54;11.32;;;2.10;;
64498;SDS011;51087;55.718;21.122;2022-07-23T09:04:19;8.43;;;2.25;;
64498;SDS011;51087;55.718;21.122;2022-07-23T09:06:45;8.70;;;2.00;;
64498;SDS011;51087;55.718;21.122;2022-07-23T09:09:19;6.13;;;2.00;;
64498;SDS011;51087;55.718;21.122;2022-07-23T09:11:46;8.52;;;2.10;;
64498;SDS011;51087;55.718;21.122;2022-07-23T09:14:42;10.32;;;2.15;;
64498;SDS011;51087;55.718;21.122;2022-07-23T09:17:15;8.93;;;2.00;;
64498;SDS011;51087;55.718;21.122;2022-07-23T09:19:42;7.90;;;2.15;;
64498;SDS011;51087;55.718;21.122;2022-07-23T09:22:22;8.35;;;2.00;;
64498;SDS011;51087;55.718;21.122;2022-07-23T09:27:48;5.07;;;1.75;;
64498;SDS011;51087;55.718;21.122;2022-07-23T09:30:14;6.40;;;1.90;;
64498;SDS011;51087;55.718;21.122;2022-07-23T09:32:40;10.45;;;1.85;;
64498;SDS011;51087;55.718;21.122;2022-07-23T09:35:06;10.43;;;1.75;;
64498;SDS011;51087;55.718;21.122;2022-07-23T09:37:32;7.88;;;2.05;;
64498;SDS011;51087;55.718;21.122;2022-07-23T09:40:08;10.93;;;2.40;;
64498;SDS011;51087;55.718;21.122;2022-07-23T09:42:37;6.60;;;2.13;;
64498;SDS011;51087;55.718;21.122;2022-07-23T09:45:03;12.10;;;2.00;;
64498;SDS011;51087;55.718;21.122;2022-07-23T09:47:32;5.45;;;2.00;;
64498;SDS011;51087;55.718;21.122;2022-07-23T09:50:08;5.70;;;1.90;;
64498;SDS011;51087;55.718;21.122;2022-07-23T09:52:36;14.70;;;2.20;;
64498;SDS011;51087;55.718;21.122;2022-07-23T09:55:13;5.90;;;1.85;;
64498;SDS011;51087;55.718;21.122;2022-07-23T09:57:40;13.57;;;1.95;;
64498;SDS011;51087;55.718;21.122;2022-07-23T10:00:06;5.03;;;1.52;;
64498;SDS011;51087;55.718;21.122;2022-07-23T10:02:34;12.43;;;1.80;;
64498;SDS011;51087;55.718;21.122;2022-07-23T10:05:01;5.82;;;1.90;;
64498;SDS011;51087;55.718;21.122;2022-07-23T10:07:27;15.02;;;1.75;;
64498;SDS011;51087;55.718;21.122;2022-07-23T10:09:56;9.02;;;1.75;;
64498;SDS011;51087;55.718;21.122;2022-07-23T10:12:23;10.55;;;1.73;;
64498;SDS011;51087;55.718;21.122;2022-07-23T10:14:49;9.30;;;2.30;;
64498;SDS011;51087;55.718;21.122;2022-07-23T10:17:16;8.15;;;1.90;;
64498;SDS011;51087;55.718;21.122;2022-07-23T10:19:42;5.53;;;1.80;;
64498;SDS011;51087;55.718;21.122;2022-07-23T10:22:24;8.50;;;2.38;;
64498;SDS011;51087;55.718;21.122;2022-07-23T10:25:00;7.47;;;1.70;;
64498;SDS011;51087;55.718;21.122;2022-07-23T10:30:02;7.05;;;1.40;;
64498;SDS011;51087;55.718;21.122;2022-07-23T10:41:04;6.88;;;1.92;;
64498;SDS011;51087;55.718;21.122;2022-07-23T10:43:30;5.97;;;1.77;;
64498;SDS011;51087;55.718;21.122;2022-07-23T10:45:57;4.15;;;1.63;;
64498;SDS011;51087;55.718;21.122;2022-07-23T10:49:29;3.40;;;1.60;;
64498;SDS011;51087;55.718;21.122;2022-07-23T10:54:46;4.30;;;1.90;;
64498;SDS011;51087;55.718;21.122;2022-07-23T10:57:15;9.57;;;2.00;;
64498;SDS011;51087;55.718;21.122;2022-07-23T11:02:27;4.82;;;1.70;;
64498;SDS011;51087;55.718;21.122;2022-07-23T11:04:56;5.97;;;1.95;;
64498;SDS011;51087;55.718;21.122;2022-07-23T11:07:24;6.95;;;1.98;;
64498;SDS011;51087;55.718;21.122;2022-07-23T11:09:50;6.30;;;1.85;;
64498;SDS011;51087;55.718;21.122;2022-07-23T11:17:35;7.15;;;1.65;;
64498;SDS011;51087;55.718;21.122;2022-07-23T11:20:17;7.78;;;1.80;;
64498;SDS011;51087;55.718;21.122;2022-07-23T11:25:13;5.45;;;1.63;;
64498;SDS011;51087;55.718;21.122;2022-07-23T11:27:54;7.55;;;2.00;;
64498;SDS011;51087;55.718;21.122;2022-07-23T11:32:52;5.05;;;1.40;;
64498;SDS011;51087;55.718;21.122;2022-07-23T11:35:27;5.55;;;1.80;;
64498;SDS011;51087;55.718;21.122;2022-07-23T11:37:54;5.45;;;1.50;;
64498;SDS011;51087;55.718;21.122;2022-07-23T11:40:27;3.35;;;1.38;;
64498;SDS011;51087;55.718;21.122;2022-07-23T11:42:57;5.13;;;1.60;;
64498;SDS011;51087;55.718;21.122;2022-07-23T11:45:29;3.95;;;1.52;;
64498;SDS011;51087;55.718;21.122;2022-07-23T11:48:06;8.85;;;1.70;;
64498;SDS011;51087;55.718;21.122;2022-07-23T11:50:33;7.82;;;1.95;;
64498;SDS011;51087;55.718;21.122;2022-07-23T11:52:59;6.93;;;1.70;;
64498;SDS011;51087;55.718;21.122;2022-07-23T11:55:25;3.95;;;1.50;;
64498;SDS011;51087;55.718;21.122;2022-07-23T11:57:52;5.40;;;1.50;;
64498;SDS011;51087;55.718;21.122;2022-07-23T12:00:19;6.88;;;2.25;;
64498;SDS011;51087;55.718;21.122;2022-07-23T12:02:48;6.60;;;1.83;;
64498;SDS011;51087;55.718;21.122;2022-07-23T12:05:19;5.68;;;1.60;;
64498;SDS011;51087;55.718;21.122;2022-07-23T12:07:50;5.47;;;1.63;;
64498;SDS011;51087;55.718;21.122;2022-07-23T12:10:18;8.55;;;1.70;;
64498;SDS011;51087;55.718;21.122;2022-07-23T12:12:47;5.07;;;1.70;;
64498;SDS011;51087;55.718;21.122;2022-07-23T12:15:15;6.20;;;2.00;;
64498;SDS011;51087;55.718;21.122;2022-07-23T12:17:44;5.57;;;1.73;;
64498;SDS011;51087;55.718;21.122;2022-07-23T12:20:45;4.85;;;1.70;;
64498;SDS011;51087;55.718;21.122;2022-07-23T12:23:11;8.90;;;1.80;;
64498;SDS011;51087;55.718;21.122;2022-07-23T12:25:39;6.55;;;1.75;;
64498;SDS011;51087;55.718;21.122;2022-07-23T12:28:51;6.15;;;2.10;;
64498;SDS011;51087;55.718;21.122;2022-07-23T12:30:57;5.30;;;1.45;;
64498;SDS011;51087;55.718;21.122;2022-07-23T12:33:25;7.43;;;2.33;;
64498;SDS011;51087;55.718;21.122;2022-07-23T12:35:56;9.30;;;2.03;;
64498;SDS011;51087;55.718;21.122;2022-07-23T12:38:25;4.45;;;2.10;;
64498;SDS011;51087;55.718;21.122;2022-07-23T12:40:58;7.57;;;1.70;;
64498;SDS011;51087;55.718;21.122;2022-07-23T12:43:31;7.20;;;1.83;;
64498;SDS011;51087;55.718;21.122;2022-07-23T12:48:49;7.80;;;2.10;;
64498;SDS011;51087;55.718;21.122;2022-07-23T12:51:19;8.90;;;1.90;;
64498;SDS011;51087;55.718;21.122;2022-07-23T12:54:05;6.68;;;1.92;;
64498;SDS011;51087;55.718;21.122;2022-07-23T12:59:04;8.13;;;1.90;;
64498;SDS011;51087;55.718;21.122;2022-07-23T13:01:43;8.55;;;2.10;;
64498;SDS011;51087;55.718;21.122;2022-07-23T13:06:44;4.07;;;1.80;;
64498;SDS011;51087;55.718;21.122;2022-07-23T13:09:13;6.22;;;2.10;;
64498;SDS011;51087;55.718;21.122;2022-07-23T13:11:41;7.10;;;1.80;;
64498;SDS011;51087;55.718;21.122;2022-07-23T13:14:06;7.03;;;1.83;;
64498;SDS011;51087;55.718;21.122;2022-07-23T13:16:32;9.32;;;2.00;;
64498;SDS011;51087;55.718;21.122;2022-07-23T13:18:58;5.05;;;2.00;;
64498;SDS011;51087;55.718;21.122;2022-07-23T13:21:25;7.40;;;2.28;;
64498;SDS011;51087;55.718;21.122;2022-07-23T13:23:51;7.25;;;2.00;;
64498;SDS011;51087;55.718;21.122;2022-07-23T13:26:17;8.73;;;2.10;;
64498;SDS011;51087;55.718;21.122;2022-07-23T13:28:43;6.72;;;2.20;;
64498;SDS011;51087;55.718;21.122;2022-07-23T13:31:08;7.88;;;1.98;;
64498;SDS011;51087;55.718;21.122;2022-07-23T13:33:34;6.03;;;2.55;;
64498;SDS011;51087;55.718;21.122;2022-07-23T13:36:00;6.07;;;2.00;;
64498;SDS011;51087;55.718;21.122;2022-07-23T13:38:26;5.35;;;1.98;;
64498;SDS011;51087;55.718;21.122;2022-07-23T13:40:52;7.18;;;2.33;;
64498;SDS011;51087;55.718;21.122;2022-07-23T13:43:19;9.60;;;2.60;;
64498;SDS011;51087;55.718;21.122;2022-07-23T13:45:46;7.35;;;2.47;;
64498;SDS011;51087;55.718;21.122;2022-07-23T13:48:12;8.45;;;2.45;;
64498;SDS011;51087;55.718;21.122;2022-07-23T13:50:39;6.53;;;2.10;;
64498;SDS011;51087;55.718;21.122;2022-07-23T13:53:06;9.38;;;2.10;;
64498;SDS011;51087;55.718;21.122;2022-07-23T13:55:37;7.90;;;2.28;;
64498;SDS011;51087;55.718;21.122;2022-07-23T13:58:03;7.22;;;2.03;;
64498;SDS011;51087;55.718;21.122;2022-07-23T14:00:30;8.15;;;2.10;;
64498;SDS011;51087;55.718;21.122;2022-07-23T14:02:57;6.22;;;2.10;;
64498;SDS011;51087;55.718;21.122;2022-07-23T14:05:24;5.60;;;2.03;;
64498;SDS011;51087;55.718;21.122;2022-07-23T14:07:50;6.65;;;2.10;;
64498;SDS011;51087;55.718;21.122;2022-07-23T14:10:17;6.72;;;1.83;;
64498;SDS011;51087;55.718;21.122;2022-07-23T14:12:44;8.85;;;2.03;;
64498;SDS011;51087;55.718;21.122;2022-07-23T14:15:10;12.68;;;2.30;;
64498;SDS011;51087;55.718;21.122;2022-07-23T14:17:36;8.95;;;2.03;;
64498;SDS011;51087;55.718;21.122;2022-07-23T14:20:05;8.50;;;2.20;;
64498;SDS011;51087;55.718;21.122;2022-07-23T14:22:32;8.30;;;2.42;;
64498;SDS011;51087;55.718;21.122;2022-07-23T14:24:57;11.00;;;2.70;;
64498;SDS011;51087;55.718;21.122;2022-07-23T14:27:23;8.80;;;2.53;;
64498;SDS011;51087;55.718;21.122;2022-07-23T14:29:50;9.27;;;2.20;;
64498;SDS011;51087;55.718;21.122;2022-07-23T14:32:16;10.57;;;2.30;;
64498;SDS011;51087;55.718;21.122;2022-07-23T14:34:42;5.88;;;2.30;;
64498;SDS011;51087;55.718;21.122;2022-07-23T14:37:08;8.38;;;2.40;;
64498;SDS011;51087;55.718;21.122;2022-07-23T14:39:35;9.77;;;2.42;;
64498;SDS011;51087;55.718;21.122;2022-07-23T14:42:01;9.30;;;2.25;;
64498;SDS011;51087;55.718;21.122;2022-07-23T14:44:26;8.55;;;2.53;;
64498;SDS011;51087;55.718;21.122;2022-07-23T14:46:52;8.50;;;2.35;;
64498;SDS011;51087;55.718;21.122;2022-07-23T14:49:18;7.75;;;2.30;;
64498;SDS011;51087;55.718;21.122;2022-07-23T14:51:43;6.82;;;2.00;;
64498;SDS011;51087;55.718;21.122;2022-07-23T14:54:09;7.45;;;2.47;;
64498;SDS011;51087;55.718;21.122;2022-07-23T14:56:35;7.65;;;2.50;;
64498;SDS011;51087;55.718;21.122;2022-07-23T14:59:02;8.27;;;2.50;;
64498;SDS011;51087;55.718;21.122;2022-07-23T15:01:29;6.88;;;2.30;;
64498;SDS011;51087;55.718;21.122;2022-07-23T15:03:54;7.72;;;2.20;;
64498;SDS011;51087;55.718;21.122;2022-07-23T15:06:20;6.25;;;2.33;;
64498;SDS011;51087;55.718;21.122;2022-07-23T15:08:45;9.43;;;2.47;;
64498;SDS011;51087;55.718;21.122;2022-07-23T15:11:11;5.47;;;2.40;;